createdAt,value
2017-04-27T00:00:21.674Z,0
2017-04-27T00:01:21.650Z,0
2017-04-27T00:02:21.884Z,0
2017-04-27T00:03:21.226Z,0
2017-04-27T00:04:21.208Z,0
2017-04-27T00:05:21.584Z,0
2017-04-27T00:06:21.810Z,0
2017-04-27T00:07:21.843Z,0
2017-04-27T00:08:21.460Z,0
2017-04-27T00:09:21.777Z,0
2017-04-27T00:10:21.162Z,0
2017-04-27T00:11:21.676Z,0
2017-04-27T00:12:21.325Z,0
2017-04-27T00:13:21.363Z,0
2017-04-27T00:14:21.279Z,0
2017-04-27T00:15:21.611Z,0
2017-04-27T00:16:20.933Z,0
2017-04-27T00:17:21.224Z,0
2017-04-27T00:18:21.526Z,0
2017-04-27T00:19:21.194Z,0
2017-04-27T00:20:21.134Z,0
2017-04-27T00:21:21.430Z,0
2017-04-27T00:22:21.430Z,0
2017-04-27T00:23:21.167Z,0
2017-04-27T00:24:21.462Z,0
2017-04-27T00:25:20.722Z,0
2017-04-27T00:26:21.354Z,0
2017-04-27T00:27:21.350Z,0
2017-04-27T00:28:20.641Z,0
2017-04-27T00:29:20.638Z,0
2017-04-27T00:30:21.210Z,0
2017-04-27T00:31:20.578Z,0
2017-04-27T00:32:20.556Z,0
2017-04-27T00:33:20.539Z,0
2017-04-27T00:34:20.503Z,0
2017-04-27T00:35:20.539Z,0
2017-04-27T00:36:20.467Z,0
2017-04-27T00:37:20.755Z,0
2017-04-27T00:38:20.121Z,0
2017-04-27T00:39:20.473Z,0
2017-04-27T00:40:20.061Z,0
2017-04-27T00:41:20.968Z,0
2017-04-27T00:42:20.323Z,0
2017-04-27T00:43:20.644Z,0
2017-04-27T00:44:20.923Z,0
2017-04-27T00:45:20.988Z,0
2017-04-27T00:46:20.241Z,0
2017-04-27T00:47:20.510Z,0
2017-04-27T00:48:20.178Z,0
2017-04-27T00:49:20.475Z,0
2017-04-27T00:50:20.151Z,0
2017-04-27T00:51:19.885Z,0
2017-04-27T00:52:20.103Z,0
2017-04-27T00:53:20.703Z,0
2017-04-27T00:54:20.363Z,0
2017-04-27T00:55:20.034Z,0
2017-04-27T00:56:20.643Z,0
2017-04-27T00:57:20.380Z,0
2017-04-27T00:58:20.262Z,0
2017-04-27T00:59:20.243Z,0
2017-04-27T01:00:20.280Z,0
2017-04-27T01:01:19.957Z,0
2017-04-27T01:02:19.632Z,0
2017-04-27T01:03:20.455Z,0
2017-04-27T01:04:20.442Z,0
2017-04-27T01:05:19.898Z,0
2017-04-27T01:06:20.145Z,0
2017-04-27T01:07:20.054Z,0
2017-04-27T01:08:20.048Z,0
2017-04-27T01:09:20.033Z,0
2017-04-27T01:10:19.716Z,0
2017-04-27T01:11:19.373Z,0
2017-04-27T01:12:19.643Z,0
2017-04-27T01:13:20.225Z,0
2017-04-27T01:14:20.205Z,0
2017-04-27T01:15:19.667Z,0
2017-04-27T01:16:19.887Z,0
2017-04-27T01:17:19.544Z,0
2017-04-27T01:18:19.872Z,0
2017-04-27T01:19:19.553Z,0
2017-04-27T01:20:19.452Z,0
2017-04-27T01:21:19.122Z,0
2017-04-27T01:22:19.165Z,0
2017-04-27T01:23:19.513Z,0
2017-04-27T01:24:19.071Z,0
2017-04-27T01:25:19.409Z,0
2017-04-27T01:26:19.363Z,0
2017-04-27T01:27:19.745Z,0
2017-04-27T01:28:19.275Z,0
2017-04-27T01:29:19.250Z,0
2017-04-27T01:30:19.841Z,0
2017-04-27T01:31:19.542Z,0
2017-04-27T01:32:19.813Z,0
2017-04-27T01:33:19.483Z,0
2017-04-27T01:34:19.747Z,0
2017-04-27T01:35:19.712Z,0
2017-04-27T01:36:19.395Z,0
2017-04-27T01:37:19.674Z,0
2017-04-27T01:38:19.659Z,0
2017-04-27T01:39:19.641Z,0
2017-04-27T01:40:19.301Z,0
2017-04-27T01:41:19.269Z,0
2017-04-27T01:42:19.259Z,0
2017-04-27T01:43:19.553Z,0
2017-04-27T01:44:19.521Z,0
2017-04-27T01:45:19.489Z,0
2017-04-27T01:46:19.515Z,0
2017-04-27T01:47:19.152Z,0
2017-04-27T01:48:19.436Z,0
2017-04-27T01:49:19.422Z,0
2017-04-27T01:50:19.089Z,0
2017-04-27T01:51:19.383Z,0
2017-04-27T01:52:19.353Z,0
2017-04-27T01:53:19.362Z,0
2017-04-27T01:54:18.984Z,0
2017-04-27T01:55:19.292Z,0
2017-04-27T01:56:18.633Z,0
2017-04-27T01:57:18.294Z,0
2017-04-27T01:58:18.893Z,0
2017-04-27T01:59:19.155Z,0
2017-04-27T02:00:18.853Z,0
2017-04-27T02:01:19.182Z,0
2017-04-27T02:02:18.474Z,0
2017-04-27T02:03:18.855Z,0
2017-04-27T02:04:18.762Z,0
2017-04-27T02:05:19.022Z,0
2017-04-27T02:06:19.003Z,0
2017-04-27T02:07:18.989Z,0
2017-04-27T02:08:18.362Z,0
2017-04-27T02:09:18.944Z,0
2017-04-27T02:10:17.982Z,0
2017-04-27T02:11:18.895Z,0
2017-04-27T02:12:18.614Z,0
2017-04-27T02:13:18.524Z,0
2017-04-27T02:14:18.553Z,0
2017-04-27T02:15:18.803Z,0
2017-04-27T02:16:18.185Z,0
2017-04-27T02:17:18.798Z,0
2017-04-27T02:18:17.865Z,0
2017-04-27T02:19:18.415Z,0
2017-04-27T02:20:18.092Z,0
2017-04-27T02:21:18.047Z,0
2017-04-27T02:22:18.374Z,0
2017-04-27T02:23:17.687Z,0
2017-04-27T02:24:17.694Z,0
2017-04-27T02:25:17.969Z,0
2017-04-27T02:26:18.332Z,0
2017-04-27T02:27:17.937Z,0
2017-04-27T02:28:17.613Z,0
2017-04-27T02:29:18.145Z,0
2017-04-27T02:30:18.194Z,0
2017-04-27T02:31:18.134Z,0
2017-04-27T02:32:18.101Z,0
2017-04-27T02:33:18.132Z,0
2017-04-27T02:34:17.789Z,0
2017-04-27T02:35:18.044Z,0
2017-04-27T02:36:18.054Z,0
2017-04-27T02:37:17.676Z,0
2017-04-27T02:38:18.252Z,0
2017-04-27T02:39:17.925Z,0
2017-04-27T02:40:17.965Z,0
2017-04-27T02:41:18.195Z,0
2017-04-27T02:42:18.177Z,0
2017-04-27T02:43:18.255Z,0
2017-04-27T02:44:17.833Z,0
2017-04-27T02:45:17.929Z,0
2017-04-27T02:46:17.809Z,0
2017-04-27T02:47:18.043Z,0
2017-04-27T02:48:17.718Z,0
2017-04-27T02:49:17.392Z,0
2017-04-27T02:50:17.693Z,0
2017-04-27T02:51:17.041Z,0
2017-04-27T02:52:17.034Z,0
2017-04-27T02:53:17.414Z,0
2017-04-27T02:54:18.043Z,0
2017-04-27T02:55:17.632Z,0
2017-04-27T02:56:17.874Z,0
2017-04-27T02:57:16.889Z,0
2017-04-27T02:58:17.553Z,0
2017-04-27T02:59:17.792Z,0
2017-04-27T03:00:17.143Z,0
2017-04-27T03:01:17.134Z,0
2017-04-27T03:02:17.722Z,0
2017-04-27T03:03:17.087Z,0
2017-04-27T03:04:17.365Z,0
2017-04-27T03:05:17.623Z,0
2017-04-27T03:06:17.405Z,0
2017-04-27T03:07:17.342Z,0
2017-04-27T03:08:17.066Z,0
2017-04-27T03:09:16.944Z,0
2017-04-27T03:10:17.212Z,0
2017-04-27T03:11:16.894Z,0
2017-04-27T03:12:17.471Z,0
2017-04-27T03:13:17.184Z,0
2017-04-27T03:14:17.134Z,0
2017-04-27T03:15:17.103Z,0
2017-04-27T03:16:17.373Z,0
2017-04-27T03:17:17.074Z,0
2017-04-27T03:18:17.344Z,0
2017-04-27T03:19:17.024Z,0
2017-04-27T03:20:16.976Z,0
2017-04-27T03:21:17.253Z,0
2017-04-27T03:22:16.923Z,0
2017-04-27T03:23:17.215Z,0
2017-04-27T03:24:17.183Z,0
2017-04-27T03:25:16.854Z,0
2017-04-27T03:26:16.264Z,0
2017-04-27T03:27:17.124Z,0
2017-04-27T03:28:16.884Z,0
2017-04-27T03:29:17.082Z,0
2017-04-27T03:30:16.857Z,0
2017-04-27T03:31:16.418Z,0
2017-04-27T03:32:16.716Z,0
2017-04-27T03:33:16.993Z,0
2017-04-27T03:34:16.371Z,0
2017-04-27T03:35:16.965Z,0
2017-04-27T03:36:15.972Z,0
2017-04-27T03:37:16.574Z,0
2017-04-27T03:38:16.620Z,0
2017-04-27T03:39:16.532Z,0
2017-04-27T03:40:16.824Z,0
2017-04-27T03:41:16.483Z,0
2017-04-27T03:42:16.164Z,0
2017-04-27T03:43:15.832Z,0
2017-04-27T03:44:16.168Z,0
2017-04-27T03:45:16.682Z,0
2017-04-27T03:46:16.675Z,0
2017-04-27T03:47:16.643Z,0
2017-04-27T03:48:16.614Z,0
2017-04-27T03:49:16.616Z,0
2017-04-27T03:50:16.604Z,0
2017-04-27T03:51:16.007Z,0
2017-04-27T03:52:16.534Z,0
2017-04-27T03:53:15.928Z,0
2017-04-27T03:54:16.483Z,0
2017-04-27T03:55:16.483Z,0
2017-04-27T03:56:16.125Z,0
2017-04-27T03:57:16.484Z,0
2017-04-27T03:58:16.093Z,0
2017-04-27T03:59:15.813Z,0
2017-04-27T04:00:15.719Z,0
2017-04-27T04:01:15.726Z,0
2017-04-27T04:02:16.075Z,0
2017-04-27T04:03:15.753Z,0
2017-04-27T04:04:15.723Z,0
2017-04-27T04:05:15.589Z,0
2017-04-27T04:06:15.944Z,0
2017-04-27T04:07:15.865Z,0
2017-04-27T04:08:15.535Z,0
2017-04-27T04:09:15.823Z,0
2017-04-27T04:10:15.469Z,5
2017-04-27T04:11:15.806Z,5
2017-04-27T04:12:16.109Z,5
2017-04-27T04:13:15.423Z,5
2017-04-27T04:14:15.081Z,5
2017-04-27T04:15:15.663Z,5
2017-04-27T04:16:15.350Z,5
2017-04-27T04:17:14.696Z,5
2017-04-27T04:18:15.303Z,5
2017-04-27T04:19:15.987Z,5
2017-04-27T04:20:15.244Z,5
2017-04-27T04:21:15.215Z,10
2017-04-27T04:22:15.537Z,10
2017-04-27T04:23:15.494Z,10
2017-04-27T04:24:15.896Z,10
2017-04-27T04:25:15.421Z,10
2017-04-27T04:26:15.090Z,10
2017-04-27T04:27:15.459Z,10
2017-04-27T04:28:15.045Z,10
2017-04-27T04:29:15.763Z,10
2017-04-27T04:30:15.724Z,15
2017-04-27T04:31:14.975Z,15
2017-04-27T04:32:14.957Z,15
2017-04-27T04:33:15.658Z,15
2017-04-27T04:34:14.614Z,15
2017-04-27T04:35:14.604Z,15
2017-04-27T04:36:15.494Z,20
2017-04-27T04:37:15.223Z,20
2017-04-27T04:38:15.242Z,20
2017-04-27T04:39:14.785Z,20
2017-04-27T04:40:14.762Z,20
2017-04-27T04:41:15.064Z,20
2017-04-27T04:42:14.750Z,25
2017-04-27T04:43:14.687Z,25
2017-04-27T04:44:14.063Z,25
2017-04-27T04:45:14.958Z,25
2017-04-27T04:46:14.621Z,25
2017-04-27T04:47:14.704Z,25
2017-04-27T04:48:14.578Z,30
2017-04-27T04:49:14.855Z,30
2017-04-27T04:50:14.935Z,30
2017-04-27T04:51:15.146Z,30
2017-04-27T04:52:14.788Z,30
2017-04-27T04:53:14.841Z,30
2017-04-27T04:54:14.762Z,30
2017-04-27T04:55:14.721Z,35
2017-04-27T04:56:14.763Z,35
2017-04-27T04:57:14.984Z,35
2017-04-27T04:58:14.695Z,40
2017-04-27T04:59:14.013Z,40
2017-04-27T05:00:14.003Z,40
2017-04-27T05:01:14.636Z,40
2017-04-27T05:02:14.559Z,40
2017-04-27T05:03:14.597Z,45
2017-04-27T05:04:14.885Z,45
2017-04-27T05:05:14.167Z,45
2017-04-27T05:06:14.484Z,45
2017-04-27T05:07:14.763Z,45
2017-04-27T05:08:14.456Z,45
2017-04-27T05:09:14.710Z,45
2017-04-27T05:10:14.678Z,50
2017-04-27T05:11:14.663Z,50
2017-04-27T05:12:14.633Z,50
2017-04-27T05:13:14.597Z,50
2017-04-27T05:14:14.621Z,50
2017-04-27T05:15:14.581Z,50
2017-04-27T05:16:14.218Z,55
2017-04-27T05:17:14.186Z,55
2017-04-27T05:18:13.963Z,55
2017-04-27T05:19:14.163Z,55
2017-04-27T05:20:14.135Z,55
2017-04-27T05:21:14.111Z,55
2017-04-27T05:22:14.124Z,55
2017-04-27T05:23:14.133Z,55
2017-04-27T05:24:13.742Z,60
2017-04-27T05:25:14.033Z,60
2017-04-27T05:26:14.285Z,60
2017-04-27T05:27:14.011Z,60
2017-04-27T05:28:14.260Z,60
2017-04-27T05:29:14.234Z,65
2017-04-27T05:30:14.203Z,65
2017-04-27T05:31:13.897Z,65
2017-04-27T05:32:13.543Z,65
2017-04-27T05:33:14.132Z,65
2017-04-27T05:34:14.140Z,65
2017-04-27T05:35:14.126Z,70
2017-04-27T05:36:14.073Z,70
2017-04-27T05:37:13.418Z,70
2017-04-27T05:38:13.727Z,70
2017-04-27T05:39:13.427Z,70
2017-04-27T05:40:13.041Z,75
2017-04-27T05:41:13.722Z,75
2017-04-27T05:42:13.627Z,75
2017-04-27T05:43:13.588Z,75
2017-04-27T05:44:13.551Z,75
2017-04-27T05:45:13.254Z,70
2017-04-27T05:46:13.526Z,75
2017-04-27T05:47:13.502Z,75
2017-04-27T05:48:13.242Z,75
2017-04-27T05:49:13.442Z,75
2017-04-27T05:50:13.432Z,75
2017-04-27T05:51:13.094Z,75
2017-04-27T05:52:13.386Z,80
2017-04-27T05:53:13.755Z,80
2017-04-27T05:54:13.654Z,80
2017-04-27T05:55:12.982Z,80
2017-04-27T05:56:13.304Z,80
2017-04-27T05:57:13.694Z,80
2017-04-27T05:58:12.940Z,85
2017-04-27T05:59:12.608Z,85
2017-04-27T06:00:13.600Z,85
2017-04-27T06:01:12.281Z,85
2017-04-27T06:02:13.502Z,85
2017-04-27T06:03:13.462Z,90
2017-04-27T06:04:12.804Z,90
2017-04-27T06:05:13.434Z,90
2017-04-27T06:06:13.104Z,90
2017-04-27T06:07:13.042Z,90
2017-04-27T06:08:13.350Z,90
2017-04-27T06:09:12.985Z,95
2017-04-27T06:10:13.000Z,95
2017-04-27T06:11:12.321Z,95
2017-04-27T06:12:12.416Z,95
2017-04-27T06:13:12.890Z,95
2017-04-27T06:14:12.603Z,105
2017-04-27T06:15:13.191Z,100
2017-04-27T06:16:12.654Z,100
2017-04-27T06:17:13.112Z,100
2017-04-27T06:18:12.869Z,100
2017-04-27T06:19:12.772Z,100
2017-04-27T06:20:13.126Z,105
2017-04-27T06:21:13.052Z,105
2017-04-27T06:22:12.477Z,105
2017-04-27T06:23:12.708Z,105
2017-04-27T06:24:12.364Z,105
2017-04-27T06:25:12.325Z,110
2017-04-27T06:26:12.027Z,110
2017-04-27T06:27:12.361Z,110
2017-04-27T06:28:12.314Z,110
2017-04-27T06:29:12.312Z,110
2017-04-27T06:30:12.580Z,115
2017-04-27T06:31:12.803Z,115
2017-04-27T06:32:12.649Z,115
2017-04-27T06:33:12.222Z,115
2017-04-27T06:34:12.455Z,115
2017-04-27T06:35:12.503Z,115
2017-04-27T06:36:12.199Z,115
2017-04-27T06:37:12.761Z,115
2017-04-27T06:38:12.199Z,115
2017-04-27T06:39:12.334Z,115
2017-04-27T06:40:12.299Z,120
2017-04-27T06:41:12.383Z,120
2017-04-27T06:42:12.307Z,120
2017-04-27T06:43:12.319Z,120
2017-04-27T06:44:12.523Z,125
2017-04-27T06:45:12.513Z,125
2017-04-27T06:46:12.935Z,125
2017-04-27T06:47:12.162Z,130
2017-04-27T06:48:11.931Z,130
2017-04-27T06:49:12.431Z,130
2017-04-27T06:50:12.139Z,135
2017-04-27T06:51:11.468Z,135
2017-04-27T06:52:12.044Z,135
2017-04-27T06:53:12.321Z,135
2017-04-27T06:54:11.755Z,140
2017-04-27T06:55:11.664Z,145
2017-04-27T06:56:12.061Z,140
2017-04-27T06:57:12.233Z,145
2017-04-27T06:58:12.264Z,145
2017-04-27T06:59:12.369Z,150
2017-04-27T07:00:12.194Z,150
2017-04-27T07:01:11.396Z,150
2017-04-27T07:02:12.163Z,150
2017-04-27T07:03:12.131Z,150
2017-04-27T07:04:12.101Z,150
2017-04-27T07:05:11.983Z,155
2017-04-27T07:06:12.058Z,155
2017-04-27T07:07:12.037Z,160
2017-04-27T07:08:11.855Z,160
2017-04-27T07:09:11.103Z,165
2017-04-27T07:10:11.669Z,165
2017-04-27T07:11:11.951Z,170
2017-04-27T07:12:11.683Z,180
2017-04-27T07:13:11.922Z,180
2017-04-27T07:14:11.891Z,185
2017-04-27T07:15:11.247Z,185
2017-04-27T07:16:11.540Z,185
2017-04-27T07:17:11.832Z,190
2017-04-27T07:18:11.517Z,200
2017-04-27T07:19:11.161Z,245
2017-04-27T07:20:11.781Z,440
2017-04-27T07:21:11.768Z,705
2017-04-27T07:22:11.461Z,945
2017-04-27T07:23:11.087Z,205
2017-04-27T07:24:11.703Z,1305
2017-04-27T07:25:10.745Z,685
2017-04-27T07:26:11.377Z,1470
2017-04-27T07:27:11.011Z,1505
2017-04-27T07:28:10.987Z,1475
2017-04-27T07:29:10.993Z,1410
2017-04-27T07:30:11.589Z,615
2017-04-27T07:31:10.951Z,195
2017-04-27T07:32:11.542Z,175
2017-04-27T07:33:11.540Z,170
2017-04-27T07:34:11.190Z,160
2017-04-27T07:35:10.869Z,165
2017-04-27T07:36:11.482Z,165
2017-04-27T07:37:11.165Z,165
2017-04-27T07:38:11.429Z,160
2017-04-27T07:39:11.405Z,160
2017-04-27T07:40:11.412Z,165
2017-04-27T07:41:11.157Z,175
2017-04-27T07:42:10.852Z,195
2017-04-27T07:43:11.090Z,205
2017-04-27T07:44:11.325Z,235
2017-04-27T07:45:11.294Z,475
2017-04-27T07:46:10.975Z,1510
2017-04-27T07:47:11.273Z,1595
2017-04-27T07:48:10.935Z,1620
2017-04-27T07:49:10.616Z,1625
2017-04-27T07:50:10.912Z,685
2017-04-27T07:51:10.574Z,540
2017-04-27T07:52:10.577Z,1475
2017-04-27T07:53:10.616Z,1630
2017-04-27T07:54:10.862Z,1610
2017-04-27T07:55:10.536Z,1630
2017-04-27T07:56:10.850Z,1610
2017-04-27T07:57:11.143Z,1585
2017-04-27T07:58:10.508Z,1570
2017-04-27T07:59:11.115Z,1625
2017-04-27T08:00:10.939Z,975
2017-04-27T08:01:10.464Z,565
2017-04-27T08:02:10.850Z,215
2017-04-27T08:03:10.773Z,200
2017-04-27T08:04:10.536Z,205
2017-04-27T08:05:10.427Z,205
2017-04-27T08:06:11.142Z,210
2017-04-27T08:07:11.013Z,1300
2017-04-27T08:08:10.496Z,1450
2017-04-27T08:09:10.788Z,1425
2017-04-27T08:10:10.703Z,1490
2017-04-27T08:11:10.367Z,1630
2017-04-27T08:12:10.722Z,1060
2017-04-27T08:13:10.360Z,270
2017-04-27T08:14:10.625Z,235
2017-04-27T08:15:10.392Z,240
2017-04-27T08:16:10.662Z,315
2017-04-27T08:17:10.911Z,250
2017-04-27T08:18:10.935Z,310
2017-04-27T08:19:10.952Z,1670
2017-04-27T08:20:10.574Z,1670
2017-04-27T08:21:09.979Z,1690
2017-04-27T08:22:10.535Z,320
2017-04-27T08:23:10.534Z,360
2017-04-27T08:24:10.520Z,1665
2017-04-27T08:25:10.194Z,1650
2017-04-27T08:26:10.509Z,450
2017-04-27T08:27:10.291Z,1365
2017-04-27T08:28:10.488Z,1720
2017-04-27T08:29:09.859Z,1630
2017-04-27T08:30:10.451Z,1565
2017-04-27T08:31:10.796Z,1520
2017-04-27T08:32:10.451Z,1585
2017-04-27T08:33:10.445Z,1600
2017-04-27T08:34:10.747Z,1595
2017-04-27T08:35:10.104Z,1625
2017-04-27T08:36:10.122Z,545
2017-04-27T08:37:10.717Z,265
2017-04-27T08:38:10.108Z,285
2017-04-27T08:39:10.161Z,1630
2017-04-27T08:40:10.067Z,315
2017-04-27T08:41:10.677Z,290
2017-04-27T08:42:10.363Z,285
2017-04-27T08:43:10.676Z,585
2017-04-27T08:44:10.349Z,265
2017-04-27T08:45:10.354Z,1255
2017-04-27T08:46:10.012Z,1525
2017-04-27T08:47:10.293Z,1615
2017-04-27T08:48:10.105Z,1675
2017-04-27T08:49:09.990Z,1610
2017-04-27T08:50:09.745Z,1585
2017-04-27T08:51:10.296Z,1605
2017-04-27T08:52:10.265Z,1525
2017-04-27T08:53:10.312Z,1480
2017-04-27T08:54:10.654Z,1520
2017-04-27T08:55:10.363Z,1525
2017-04-27T08:56:09.973Z,1540
2017-04-27T08:57:09.994Z,340
2017-04-27T08:58:10.681Z,310
2017-04-27T08:59:10.214Z,695
2017-04-27T09:00:10.249Z,310
2017-04-27T09:01:10.212Z,810
2017-04-27T09:02:10.186Z,1570
2017-04-27T09:03:09.581Z,1470
2017-04-27T09:04:10.156Z,1350
2017-04-27T09:05:10.481Z,480
2017-04-27T09:06:10.157Z,270
2017-04-27T09:07:09.931Z,275
2017-04-27T09:08:10.548Z,230
2017-04-27T09:09:10.154Z,195
2017-04-27T09:10:10.137Z,205
2017-04-27T09:11:10.198Z,1445
2017-04-27T09:12:09.794Z,1515
2017-04-27T09:13:10.381Z,1650
2017-04-27T09:14:09.875Z,1450
2017-04-27T09:15:10.081Z,1425
2017-04-27T09:16:09.767Z,1510
2017-04-27T09:17:10.089Z,1510
2017-04-27T09:18:10.364Z,1500
2017-04-27T09:19:10.333Z,1595
2017-04-27T09:20:10.025Z,1595
2017-04-27T09:21:09.855Z,1455
2017-04-27T09:22:10.059Z,1465
2017-04-27T09:23:10.094Z,1445
2017-04-27T09:24:10.006Z,1345
2017-04-27T09:25:09.983Z,1400
2017-04-27T09:26:10.064Z,1480
2017-04-27T09:27:10.024Z,1455
2017-04-27T09:28:09.970Z,1415
2017-04-27T09:29:09.948Z,1490
2017-04-27T09:30:09.707Z,1435
2017-04-27T09:31:09.716Z,1415
2017-04-27T09:32:09.646Z,1435
2017-04-27T09:33:10.034Z,1435
2017-04-27T09:34:09.945Z,1410
2017-04-27T09:35:09.746Z,1400
2017-04-27T09:36:09.916Z,1450
2017-04-27T09:37:10.001Z,1430
2017-04-27T09:38:09.619Z,1380
2017-04-27T09:39:09.909Z,1395
2017-04-27T09:40:09.896Z,1380
2017-04-27T09:41:09.962Z,1335
2017-04-27T09:42:09.903Z,1320
2017-04-27T09:43:09.877Z,1340
2017-04-27T09:44:09.880Z,1250
2017-04-27T09:45:09.863Z,740
2017-04-27T09:46:09.842Z,230
2017-04-27T09:47:09.552Z,220
2017-04-27T09:48:09.841Z,205
2017-04-27T09:49:09.842Z,215
2017-04-27T09:50:09.835Z,215
2017-04-27T09:51:09.839Z,210
2017-04-27T09:52:09.816Z,1155
2017-04-27T09:53:10.098Z,1175
2017-04-27T09:54:09.812Z,1200
2017-04-27T09:55:09.542Z,1210
2017-04-27T09:56:10.096Z,1200
2017-04-27T09:57:09.537Z,1230
2017-04-27T09:58:09.892Z,1155
2017-04-27T09:59:10.075Z,1115
2017-04-27T10:00:09.431Z,1135
2017-04-27T10:01:10.042Z,1090
2017-04-27T10:02:09.442Z,1080
2017-04-27T10:03:10.010Z,1060
2017-04-27T10:04:10.003Z,1135
2017-04-27T10:05:10.002Z,215
2017-04-27T10:06:09.991Z,190
2017-04-27T10:07:10.012Z,175
2017-04-27T10:08:09.660Z,175
2017-04-27T10:09:09.953Z,165
2017-04-27T10:10:09.957Z,160
2017-04-27T10:11:09.944Z,155
2017-04-27T10:12:09.687Z,155
2017-04-27T10:13:09.924Z,160
2017-04-27T10:14:09.637Z,355
2017-04-27T10:15:09.887Z,340
2017-04-27T10:16:09.888Z,340
2017-04-27T10:17:09.848Z,340
2017-04-27T10:18:09.565Z,350
2017-04-27T10:19:09.534Z,345
2017-04-27T10:20:09.946Z,345
2017-04-27T10:21:09.927Z,345
2017-04-27T10:22:09.193Z,345
2017-04-27T10:23:09.472Z,345
2017-04-27T10:24:09.488Z,350
2017-04-27T10:25:09.759Z,350
2017-04-27T10:26:09.441Z,345
2017-04-27T10:27:09.421Z,345
2017-04-27T10:28:09.729Z,345
2017-04-27T10:29:09.410Z,350
2017-04-27T10:30:09.713Z,345
2017-04-27T10:31:09.063Z,345
2017-04-27T10:32:09.420Z,245
2017-04-27T10:33:09.347Z,355
2017-04-27T10:34:09.331Z,365
2017-04-27T10:35:09.315Z,215
2017-04-27T10:36:09.006Z,205
2017-04-27T10:37:09.282Z,195
2017-04-27T10:38:09.302Z,185
2017-04-27T10:39:09.272Z,175
2017-04-27T10:40:08.645Z,175
2017-04-27T10:41:09.317Z,170
2017-04-27T10:42:09.643Z,165
2017-04-27T10:43:09.672Z,170
2017-04-27T10:44:09.631Z,170
2017-04-27T10:45:09.162Z,175
2017-04-27T10:46:09.523Z,200
2017-04-27T10:47:09.259Z,310
2017-04-27T10:48:09.189Z,355
2017-04-27T10:49:08.840Z,355
2017-04-27T10:50:09.402Z,365
2017-04-27T10:51:08.828Z,215
2017-04-27T10:52:09.411Z,210
2017-04-27T10:53:09.131Z,205
2017-04-27T10:54:09.408Z,200
2017-04-27T10:55:09.460Z,190
2017-04-27T10:56:09.348Z,185
2017-04-27T10:57:09.353Z,185
2017-04-27T10:58:08.434Z,185
2017-04-27T10:59:08.371Z,185
2017-04-27T11:00:08.675Z,340
2017-04-27T11:01:09.348Z,335
2017-04-27T11:02:08.615Z,335
2017-04-27T11:03:08.909Z,245
2017-04-27T11:04:08.930Z,170
2017-04-27T11:05:09.260Z,170
2017-04-27T11:06:08.552Z,175
2017-04-27T11:07:09.167Z,170
2017-04-27T11:08:09.142Z,160
2017-04-27T11:09:09.211Z,150
2017-04-27T11:10:08.815Z,145
2017-04-27T11:11:08.477Z,145
2017-04-27T11:12:08.532Z,145
2017-04-27T11:13:08.490Z,145
2017-04-27T11:14:08.760Z,145
2017-04-27T11:15:09.039Z,140
2017-04-27T11:16:08.112Z,145
2017-04-27T11:17:08.467Z,195
2017-04-27T11:18:08.681Z,295
2017-04-27T11:19:09.001Z,320
2017-04-27T11:20:08.033Z,335
2017-04-27T11:21:08.946Z,265
2017-04-27T11:22:08.451Z,345
2017-04-27T11:23:08.923Z,340
2017-04-27T11:24:08.926Z,345
2017-04-27T11:25:08.284Z,345
2017-04-27T11:26:08.441Z,335
2017-04-27T11:27:08.192Z,325
2017-04-27T11:28:08.633Z,320
2017-04-27T11:29:08.555Z,300
2017-04-27T11:30:08.846Z,320
2017-04-27T11:31:08.501Z,325
2017-04-27T11:32:08.887Z,325
2017-04-27T11:33:08.261Z,325
2017-04-27T11:34:08.735Z,330
2017-04-27T11:35:08.839Z,330
2017-04-27T11:36:08.865Z,330
2017-04-27T11:37:08.401Z,335
2017-04-27T11:38:08.080Z,320
2017-04-27T11:39:09.222Z,320
2017-04-27T11:40:08.468Z,315
2017-04-27T11:41:08.642Z,290
2017-04-27T11:42:08.112Z,150
2017-04-27T11:43:08.365Z,140
2017-04-27T11:44:08.382Z,140
2017-04-27T11:45:07.985Z,135
2017-04-27T11:46:08.464Z,135
2017-04-27T11:47:08.248Z,130
2017-04-27T11:48:08.004Z,130
2017-04-27T11:49:08.341Z,125
2017-04-27T11:50:08.273Z,120
2017-04-27T11:51:08.584Z,120
2017-04-27T11:52:08.072Z,120
2017-04-27T11:53:07.863Z,120
2017-04-27T11:54:08.610Z,120
2017-04-27T11:55:07.943Z,120
2017-04-27T11:56:08.194Z,120
2017-04-27T11:57:08.112Z,120
2017-04-27T11:58:08.710Z,175
2017-04-27T11:59:07.921Z,135
2017-04-27T12:00:07.791Z,165
2017-04-27T12:01:08.040Z,235
2017-04-27T12:02:08.334Z,270
2017-04-27T12:03:08.010Z,285
2017-04-27T12:04:08.052Z,165
2017-04-27T12:05:07.803Z,165
2017-04-27T12:06:08.270Z,250
2017-04-27T12:07:07.651Z,225
2017-04-27T12:08:07.980Z,210
2017-04-27T12:09:07.919Z,305
2017-04-27T12:10:07.790Z,325
2017-04-27T12:11:07.957Z,325
2017-04-27T12:12:07.966Z,325
2017-04-27T12:13:07.983Z,320
2017-04-27T12:14:08.192Z,350
2017-04-27T12:15:07.542Z,345
2017-04-27T12:16:07.801Z,355
2017-04-27T12:17:08.221Z,345
2017-04-27T12:18:07.771Z,345
2017-04-27T12:19:07.778Z,345
2017-04-27T12:20:07.891Z,345
2017-04-27T12:21:07.638Z,325
2017-04-27T12:22:07.908Z,225
2017-04-27T12:23:08.084Z,340
2017-04-27T12:24:07.804Z,340
2017-04-27T12:25:07.386Z,335
2017-04-27T12:26:07.711Z,195
2017-04-27T12:27:07.382Z,180
2017-04-27T12:28:07.650Z,170
2017-04-27T12:29:07.661Z,180
2017-04-27T12:30:07.304Z,270
2017-04-27T12:31:07.599Z,320
2017-04-27T12:32:07.762Z,325
2017-04-27T12:33:07.583Z,295
2017-04-27T12:34:07.948Z,200
2017-04-27T12:35:07.541Z,180
2017-04-27T12:36:07.389Z,200
2017-04-27T12:37:07.541Z,170
2017-04-27T12:38:07.592Z,165
2017-04-27T12:39:07.779Z,225
2017-04-27T12:40:07.198Z,160
2017-04-27T12:41:07.815Z,160
2017-04-27T12:42:07.514Z,270
2017-04-27T12:43:07.764Z,155
2017-04-27T12:44:07.710Z,165
2017-04-27T12:45:07.784Z,160
2017-04-27T12:46:07.861Z,250
2017-04-27T12:47:07.862Z,185
2017-04-27T12:48:07.849Z,185
2017-04-27T12:49:07.721Z,225
2017-04-27T12:50:07.374Z,305
2017-04-27T12:51:07.322Z,260
2017-04-27T12:52:07.618Z,300
2017-04-27T12:53:07.644Z,320
2017-04-27T12:54:07.590Z,315
2017-04-27T12:55:07.260Z,305
2017-04-27T12:56:07.271Z,300
2017-04-27T12:57:07.224Z,265
2017-04-27T12:58:07.235Z,290
2017-04-27T12:59:06.873Z,300
2017-04-27T13:00:07.590Z,265
2017-04-27T13:01:06.325Z,190
2017-04-27T13:02:07.143Z,180
2017-04-27T13:03:07.433Z,175
2017-04-27T13:04:07.444Z,250
2017-04-27T13:05:07.404Z,225
2017-04-27T13:06:07.402Z,260
2017-04-27T13:07:07.388Z,185
2017-04-27T13:08:06.752Z,185
2017-04-27T13:09:07.107Z,180
2017-04-27T13:10:07.333Z,185
2017-04-27T13:11:07.345Z,195
2017-04-27T13:12:07.303Z,260
2017-04-27T13:13:06.981Z,225
2017-04-27T13:14:07.293Z,190
2017-04-27T13:15:07.272Z,180
2017-04-27T13:16:06.940Z,180
2017-04-27T13:17:07.264Z,185
2017-04-27T13:18:07.266Z,185
2017-04-27T13:19:06.929Z,180
2017-04-27T13:20:06.890Z,180
2017-04-27T13:21:06.852Z,180
2017-04-27T13:22:07.184Z,185
2017-04-27T13:23:06.830Z,185
2017-04-27T13:24:06.827Z,180
2017-04-27T13:25:07.109Z,180
2017-04-27T13:26:07.310Z,205
2017-04-27T13:27:06.773Z,195
2017-04-27T13:28:06.764Z,195
2017-04-27T13:29:06.752Z,190
2017-04-27T13:30:07.026Z,195
2017-04-27T13:31:07.040Z,195
2017-04-27T13:32:06.998Z,200
2017-04-27T13:33:07.014Z,275
2017-04-27T13:34:06.450Z,210
2017-04-27T13:35:06.956Z,245
2017-04-27T13:36:06.928Z,235
2017-04-27T13:37:06.903Z,275
2017-04-27T13:38:05.999Z,255
2017-04-27T13:39:06.312Z,260
2017-04-27T13:40:06.901Z,265
2017-04-27T13:41:06.255Z,205
2017-04-27T13:42:05.911Z,165
2017-04-27T13:43:06.544Z,245
2017-04-27T13:44:06.504Z,220
2017-04-27T13:45:06.579Z,230
2017-04-27T13:46:06.455Z,225
2017-04-27T13:47:06.760Z,195
2017-04-27T13:48:06.241Z,150
2017-04-27T13:49:06.115Z,135
2017-04-27T13:50:06.715Z,125
2017-04-27T13:51:06.713Z,125
2017-04-27T13:52:06.691Z,120
2017-04-27T13:53:06.661Z,120
2017-04-27T13:54:06.352Z,120
2017-04-27T13:55:06.652Z,120
2017-04-27T13:56:06.323Z,120
2017-04-27T13:57:06.012Z,125
2017-04-27T13:58:06.356Z,125
2017-04-27T13:59:06.278Z,125
2017-04-27T14:00:06.350Z,130
2017-04-27T14:01:05.941Z,130
2017-04-27T14:02:06.244Z,135
2017-04-27T14:03:05.271Z,135
2017-04-27T14:04:06.611Z,135